createdAt,value
2019-03-28T00:02:08.996Z,16.10
2019-03-28T00:04:37.482Z,14.45
2019-03-28T00:07:05.970Z,15.05
2019-03-28T00:09:34.457Z,19.98
2019-03-28T00:12:02.941Z,17.35
2019-03-28T00:14:31.433Z,13.90
2019-03-28T00:16:59.921Z,15.15
2019-03-28T00:19:28.417Z,12.78
2019-03-28T00:21:56.897Z,33.00
2019-03-28T00:24:26.957Z,14.05
2019-03-28T00:26:55.446Z,12.88
2019-03-28T00:29:23.935Z,14.30
2019-03-28T00:31:52.417Z,20.70
2019-03-28T00:34:20.912Z,20.15
2019-03-28T00:36:49.392Z,13.65
2019-03-28T00:39:17.881Z,14.55
2019-03-28T00:41:46.369Z,13.78
2019-03-28T00:44:14.865Z,13.60
2019-03-28T00:46:43.456Z,12.43
2019-03-28T00:49:11.971Z,10.43
2019-03-28T00:51:43.009Z,10.90
2019-03-28T00:54:10.711Z,11.08
2019-03-28T00:56:46.746Z,12.37
2019-03-28T00:59:09.403Z,14.60
2019-03-28T01:01:37.906Z,11.63
2019-03-28T01:04:06.392Z,11.55
2019-03-28T01:06:34.882Z,12.10
2019-03-28T01:09:04.408Z,12.18
2019-03-28T01:11:33.345Z,11.12
2019-03-28T01:14:01.826Z,13.70
2019-03-28T01:16:30.315Z,12.70
2019-03-28T01:18:58.813Z,20.77
2019-03-28T01:21:27.299Z,11.90
2019-03-28T01:23:55.801Z,31.73
2019-03-28T01:26:24.296Z,22.75
2019-03-28T01:28:52.785Z,18.48
2019-03-28T01:31:21.286Z,25.37
2019-03-28T01:33:49.774Z,25.52
2019-03-28T01:36:18.266Z,23.87
2019-03-28T01:38:46.758Z,16.85
2019-03-28T01:41:15.243Z,14.58
2019-03-28T01:43:43.738Z,15.95
2019-03-28T02:00:50.110Z,22.70
2019-03-28T02:03:18.595Z,18.92
2019-03-28T02:05:47.087Z,16.37
2019-03-28T02:08:15.629Z,14.05
2019-03-28T02:10:44.115Z,15.70
2019-03-28T02:13:12.610Z,19.82
2019-03-28T02:15:41.108Z,27.75
2019-03-28T02:18:09.624Z,25.60
2019-03-28T02:20:38.109Z,38.65
2019-03-28T02:23:06.611Z,44.75
2019-03-28T02:25:35.105Z,48.48
2019-03-28T02:28:03.611Z,30.57
2019-03-28T02:30:32.900Z,40.58
2019-03-28T02:33:01.595Z,21.73
2019-03-28T02:35:30.092Z,26.23
2019-03-28T02:37:58.791Z,29.87
2019-03-28T02:40:27.298Z,16.00
2019-03-28T02:42:55.968Z,15.00
2019-03-28T02:45:24.452Z,25.85
2019-03-28T02:47:52.980Z,26.07
2019-03-28T02:50:21.473Z,24.77
2019-03-28T02:52:49.962Z,25.77
2019-03-28T02:55:18.587Z,26.25
2019-03-28T02:57:47.035Z,29.80
2019-03-28T03:00:15.534Z,32.40
2019-03-28T03:02:44.080Z,30.12
2019-03-28T03:05:12.595Z,30.05
2019-03-28T03:07:41.854Z,98.00
2019-03-28T03:10:10.564Z,82.27
2019-03-28T03:12:39.132Z,72.12
2019-03-28T03:15:07.932Z,57.58
2019-03-28T03:17:36.425Z,39.85
2019-03-28T03:20:06.228Z,30.85
2019-03-28T03:22:34.713Z,30.57
2019-03-28T03:25:03.711Z,25.50
2019-03-28T03:27:32.207Z,24.90
2019-03-28T03:30:00.756Z,22.07
2019-03-28T03:32:29.370Z,23.55
2019-03-28T03:34:57.932Z,23.35
2019-03-28T03:37:26.640Z,39.40
2019-03-28T03:39:55.200Z,29.80
2019-03-28T03:42:23.699Z,34.92
2019-03-28T03:44:52.384Z,26.23
2019-03-28T03:47:20.892Z,35.55
2019-03-28T03:49:49.390Z,20.32
2019-03-28T03:52:17.870Z,19.73
2019-03-28T03:54:46.361Z,19.23
2019-03-28T03:57:14.858Z,10.98
2019-03-28T03:59:43.358Z,17.87
2019-03-28T04:02:11.846Z,15.40
2019-03-28T04:04:40.354Z,17.75
2019-03-28T04:07:08.841Z,17.20
2019-03-28T04:09:37.325Z,14.18
2019-03-28T04:12:05.873Z,16.05
2019-03-28T04:14:34.332Z,17.45
2019-03-28T04:17:02.854Z,70.72
2019-03-28T04:19:32.090Z,92.22
2019-03-28T04:22:00.945Z,48.50
2019-03-28T04:24:29.481Z,43.00
2019-03-28T04:26:57.991Z,62.78
2019-03-28T04:29:26.488Z,49.20
2019-03-28T04:31:54.976Z,36.98
2019-03-28T04:34:23.465Z,40.33
2019-03-28T04:36:51.954Z,44.70
2019-03-28T04:39:20.436Z,25.32
2019-03-28T04:41:49.559Z,19.87
2019-03-28T04:44:18.304Z,22.05
2019-03-28T04:46:46.810Z,19.10
2019-03-28T04:49:15.810Z,21.52
2019-03-28T04:51:44.472Z,24.72
2019-03-28T04:54:12.957Z,26.57
2019-03-28T04:56:41.450Z,25.10
2019-03-28T04:59:09.953Z,27.45
2019-03-28T05:01:38.436Z,29.00
2019-03-28T05:04:06.913Z,32.65
2019-03-28T05:06:37.843Z,29.30
2019-03-28T05:09:06.429Z,30.05
2019-03-28T05:11:34.924Z,35.13
2019-03-28T05:14:03.406Z,26.70
2019-03-28T05:16:31.903Z,27.70
2019-03-28T05:19:00.398Z,27.15
2019-03-28T05:21:28.906Z,26.17
2019-03-28T05:23:57.400Z,24.50
2019-03-28T05:26:25.895Z,29.00
2019-03-28T05:28:57.707Z,29.92
2019-03-28T05:31:24.609Z,29.00
2019-03-28T05:33:53.101Z,30.68
2019-03-28T05:36:21.603Z,32.53
2019-03-28T05:38:50.096Z,34.80
2019-03-28T05:41:18.642Z,38.05
2019-03-28T05:43:47.137Z,42.58
2019-03-28T05:46:15.626Z,43.13
2019-03-28T05:48:44.130Z,41.42
2019-03-28T05:51:12.626Z,48.68
2019-03-28T05:53:43.898Z,49.13
2019-03-28T05:56:11.355Z,49.90
2019-03-28T05:58:39.859Z,50.28
2019-03-28T06:01:08.343Z,48.90
2019-03-28T06:03:36.841Z,47.83
2019-03-28T06:06:05.333Z,53.63
2019-03-28T06:08:33.836Z,45.33
2019-03-28T06:11:02.437Z,51.55
2019-03-28T06:13:31.110Z,54.48
2019-03-28T06:15:59.606Z,49.27
2019-03-28T06:18:28.122Z,48.58
2019-03-28T06:20:59.506Z,51.88
2019-03-28T06:23:26.903Z,49.88
2019-03-28T06:25:55.404Z,53.65
2019-03-28T06:28:23.881Z,62.78
2019-03-28T06:30:52.392Z,54.38
2019-03-28T06:33:20.887Z,50.83
2019-03-28T06:35:49.399Z,55.00
2019-03-28T06:38:17.884Z,53.40
2019-03-28T06:40:46.453Z,55.48
2019-03-28T06:43:14.939Z,62.85
2019-03-28T06:45:43.437Z,55.85
2019-03-28T06:48:12.442Z,56.23
2019-03-28T06:50:41.327Z,55.05
2019-03-28T06:53:09.826Z,56.18
2019-03-28T06:55:38.316Z,50.20
2019-03-28T06:58:06.830Z,41.05
2019-03-28T07:00:35.320Z,46.60
2019-03-28T07:03:03.813Z,38.30
2019-03-28T07:05:32.309Z,37.10
2019-03-28T07:08:00.798Z,36.40
2019-03-28T07:10:29.286Z,36.55
2019-03-28T07:12:58.083Z,34.13
2019-03-28T07:15:26.581Z,30.15
2019-03-28T07:17:55.084Z,27.45
2019-03-28T07:20:23.572Z,26.70
2019-03-28T07:22:52.079Z,30.68
2019-03-28T07:25:20.572Z,26.42
2019-03-28T07:27:49.063Z,26.42
2019-03-28T07:30:19.486Z,29.25
2019-03-28T07:32:48.192Z,82.78
2019-03-28T07:35:16.688Z,24.32
2019-03-28T07:37:45.198Z,24.35
2019-03-28T07:40:13.692Z,23.95
2019-03-28T07:42:42.233Z,21.02
2019-03-28T07:45:10.827Z,28.98
2019-03-28T07:47:39.315Z,22.75
2019-03-28T07:50:08.211Z,21.80
2019-03-28T07:52:36.703Z,21.07
2019-03-28T07:55:08.330Z,21.12
2019-03-28T07:57:36.820Z,21.82
2019-03-28T08:00:07.820Z,22.22
2019-03-28T08:02:36.334Z,21.87
2019-03-28T08:05:07.630Z,20.77
2019-03-28T08:07:45.054Z,22.82
2019-03-28T08:10:07.628Z,20.85
2019-03-28T08:12:36.209Z,21.45
2019-03-28T08:15:07.843Z,21.10
2019-03-28T08:17:36.366Z,20.60
2019-03-28T08:20:07.449Z,20.70
2019-03-28T08:22:36.103Z,31.23
2019-03-28T08:25:11.642Z,22.32
2019-03-28T08:27:39.950Z,19.20
2019-03-28T08:30:18.206Z,23.77
2019-03-28T08:32:39.983Z,19.65
2019-03-28T08:35:08.746Z,17.90
2019-03-28T08:37:38.794Z,34.00
2019-03-28T08:40:07.904Z,18.17
2019-03-28T08:42:36.397Z,19.98
2019-03-28T08:45:07.192Z,24.90
2019-03-28T08:47:35.878Z,21.20
2019-03-28T08:50:06.385Z,21.62
2019-03-28T08:52:34.878Z,18.50
2019-03-28T08:55:04.167Z,17.80
2019-03-28T08:57:32.767Z,20.20
2019-03-28T09:00:01.274Z,18.50
2019-03-28T09:02:29.767Z,16.07
2019-03-28T09:04:58.273Z,15.75
2019-03-28T09:07:26.781Z,15.80
2019-03-28T09:09:55.275Z,15.13
2019-03-28T09:12:23.780Z,19.98
2019-03-28T09:14:52.277Z,16.45
2019-03-28T09:17:23.698Z,19.42
2019-03-28T09:19:50.988Z,16.52
2019-03-28T09:22:19.497Z,15.55
2019-03-28T09:24:48.043Z,17.35
2019-03-28T09:27:16.552Z,16.95
2019-03-28T09:29:45.045Z,16.87
2019-03-28T09:32:13.552Z,17.37
2019-03-28T09:34:42.045Z,15.72
2019-03-28T09:37:10.551Z,15.55
2019-03-28T09:39:39.029Z,16.45
2019-03-28T09:42:07.532Z,16.32
2019-03-28T09:44:36.026Z,14.58
2019-03-28T09:47:04.562Z,16.60
2019-03-28T09:49:33.064Z,15.60
2019-03-28T09:52:01.547Z,15.83
2019-03-28T09:54:30.054Z,23.75
2019-03-28T09:56:58.548Z,20.10
2019-03-28T09:59:27.043Z,27.45
2019-03-28T10:01:55.543Z,17.10
2019-03-28T10:04:24.039Z,15.80
2019-03-28T10:06:52.523Z,20.68
2019-03-28T10:09:21.037Z,18.67
2019-03-28T10:11:49.542Z,17.10
2019-03-28T10:14:18.051Z,18.75
2019-03-28T10:16:46.539Z,13.00
2019-03-28T10:19:15.033Z,16.73
2019-03-28T10:21:43.534Z,16.37
2019-03-28T10:24:12.020Z,14.35
2019-03-28T10:26:40.523Z,16.12
2019-03-28T10:29:09.384Z,15.58
2019-03-28T10:31:37.895Z,16.32
2019-03-28T10:34:06.484Z,17.05
2019-03-28T10:36:34.987Z,14.93
2019-03-28T10:39:04.870Z,14.35
2019-03-28T10:41:33.373Z,13.62
2019-03-28T10:44:01.859Z,13.45
2019-03-28T10:46:30.374Z,15.65
2019-03-28T10:48:58.861Z,14.15
2019-03-28T10:51:27.441Z,15.30
2019-03-28T10:53:55.924Z,12.78
2019-03-28T10:56:24.538Z,19.40
2019-03-28T10:58:53.104Z,12.60
2019-03-28T11:01:41.723Z,14.10
2019-03-28T11:03:53.814Z,20.92
2019-03-28T11:06:22.296Z,11.00
2019-03-28T11:08:50.799Z,12.28
2019-03-28T11:11:19.314Z,18.35
2019-03-28T11:13:47.812Z,10.00
2019-03-28T11:16:16.637Z,14.13
2019-03-28T11:18:45.177Z,23.42
2019-03-28T11:21:13.645Z,17.48
2019-03-28T11:23:42.144Z,12.40
2019-03-28T11:26:10.634Z,21.55
2019-03-28T11:28:39.152Z,12.85
2019-03-28T11:31:07.677Z,12.45
2019-03-28T11:33:36.192Z,15.15
2019-03-28T11:36:06.442Z,12.35
2019-03-28T11:38:34.948Z,12.23
2019-03-28T11:41:05.025Z,12.35
2019-03-28T11:43:33.530Z,11.85
2019-03-28T11:46:02.025Z,11.85
2019-03-28T11:48:30.525Z,13.00
2019-03-28T11:50:59.019Z,10.13
2019-03-28T11:53:27.509Z,12.58
2019-03-28T11:55:55.996Z,25.20
2019-03-28T11:58:24.498Z,9.90
2019-03-28T12:00:52.984Z,24.57
2019-03-28T12:03:21.587Z,15.03
2019-03-28T12:05:53.001Z,18.52
2019-03-28T12:08:20.370Z,20.00
2019-03-28T12:10:48.871Z,23.80
2019-03-28T12:13:17.390Z,17.95
2019-03-28T12:15:45.881Z,11.90
2019-03-28T12:18:14.376Z,10.48
2019-03-28T12:20:45.515Z,13.60
2019-03-28T12:23:13.425Z,10.88
2019-03-28T12:25:41.923Z,10.93
2019-03-28T12:28:10.413Z,16.82
2019-03-28T12:30:38.924Z,16.15
2019-03-28T12:33:07.449Z,15.05
2019-03-28T12:35:35.933Z,12.40
2019-03-28T12:38:04.515Z,10.20
2019-03-28T12:40:33.025Z,13.93
2019-03-28T12:43:01.517Z,11.05
2019-03-28T12:45:30.019Z,14.35
2019-03-28T12:47:58.531Z,14.07
2019-03-28T12:50:27.190Z,16.10
2019-03-28T12:52:58.184Z,11.90
2019-03-28T12:55:25.898Z,12.95
2019-03-28T12:57:54.608Z,16.50
2019-03-28T13:00:29.222Z,22.70
2019-03-28T13:02:57.852Z,17.45
2019-03-28T13:05:26.345Z,12.93
2019-03-28T13:07:54.820Z,13.75
2019-03-28T13:10:23.357Z,13.10
2019-03-28T13:12:51.792Z,12.55
2019-03-28T13:15:20.277Z,11.78
2019-03-28T13:17:48.761Z,10.58
2019-03-28T13:20:17.273Z,14.25
2019-03-28T13:22:45.765Z,11.18
2019-03-28T13:25:14.270Z,13.53
2019-03-28T13:27:42.755Z,16.52
2019-03-28T15:36:45.278Z,16.62
2019-03-28T15:39:13.777Z,14.33
2019-03-28T15:41:42.264Z,14.78
2019-03-28T15:44:10.764Z,14.60
2019-03-28T15:46:39.281Z,18.30
2019-03-28T15:49:07.772Z,12.33
2019-03-28T15:51:36.267Z,27.65
2019-03-28T15:54:04.809Z,18.20
2019-03-28T15:56:33.283Z,15.88
2019-03-28T15:59:01.777Z,19.70
2019-03-28T16:01:30.277Z,14.00
2019-03-28T16:03:58.769Z,13.90
2019-03-28T16:06:27.262Z,14.90
2019-03-28T16:08:55.755Z,23.07
2019-03-28T16:11:24.255Z,13.05
2019-03-28T16:13:52.740Z,16.17
2019-03-28T16:16:21.335Z,15.25
2019-03-28T16:18:49.830Z,27.95
2019-03-28T16:21:19.901Z,17.92
2019-03-28T16:23:48.404Z,20.02
2019-03-28T16:26:16.911Z,17.42
2019-03-28T16:28:45.906Z,18.85
2019-03-28T16:31:14.405Z,36.30
2019-03-28T16:33:43.223Z,22.62
2019-03-28T16:36:11.725Z,34.55
2019-03-28T16:38:40.238Z,22.52
2019-03-28T16:41:08.788Z,18.42
2019-03-28T16:43:37.284Z,20.00
2019-03-28T16:46:07.721Z,19.27
2019-03-28T16:48:36.055Z,18.95
2019-03-28T16:51:04.658Z,22.70
2019-03-28T16:53:34.335Z,21.55
2019-03-28T16:56:02.948Z,17.10
2019-03-28T16:58:31.654Z,22.87
2019-03-28T17:01:00.177Z,19.17
2019-03-28T17:03:28.937Z,29.10
2019-03-28T17:05:57.837Z,23.83
2019-03-28T17:08:26.329Z,16.45
2019-03-28T17:10:54.834Z,17.90
2019-03-28T17:13:23.333Z,17.67
2019-03-28T17:15:51.828Z,27.58
2019-03-28T17:18:20.342Z,21.10
2019-03-28T17:20:48.817Z,24.37
2019-03-28T17:23:17.305Z,22.17
2019-03-28T17:25:45.807Z,24.05
2019-03-28T17:28:14.400Z,23.67
2019-03-28T17:30:42.895Z,42.78
2019-03-28T17:33:11.388Z,44.03
2019-03-28T17:35:39.934Z,39.05
2019-03-28T17:38:08.436Z,29.07
2019-03-28T17:40:37.080Z,51.13
2019-03-28T17:43:06.332Z,82.45
2019-03-28T17:45:34.862Z,80.97
2019-03-28T17:48:03.356Z,72.12
2019-03-28T17:50:31.851Z,60.63
2019-03-28T17:53:00.374Z,63.28
2019-03-28T17:55:29.765Z,68.40
2019-03-28T17:57:58.550Z,54.58
2019-03-28T18:00:28.181Z,42.80
2019-03-28T18:03:08.613Z,35.38
2019-03-28T18:05:27.143Z,33.35
2019-03-28T18:07:55.635Z,30.95
2019-03-28T18:10:24.231Z,26.73
2019-03-28T18:12:52.733Z,31.45
2019-03-28T18:15:21.232Z,30.12
2019-03-28T18:17:49.730Z,30.12
2019-03-28T18:20:18.220Z,29.80
2019-03-28T18:22:46.722Z,24.07
2019-03-28T18:25:15.209Z,27.17
2019-03-28T18:27:43.836Z,25.82
2019-03-28T18:30:12.265Z,29.98
2019-03-28T18:32:40.764Z,28.10
2019-03-28T18:35:09.257Z,20.00
2019-03-28T18:37:37.752Z,30.50
2019-03-28T18:40:07.640Z,31.23
2019-03-28T18:42:36.158Z,31.77
2019-03-28T18:45:07.804Z,23.57
2019-03-28T18:47:36.535Z,22.58
2019-03-28T18:50:06.337Z,22.20
2019-03-28T18:52:34.850Z,37.17
2019-03-28T18:55:03.947Z,21.50
2019-03-28T18:57:32.417Z,22.20
2019-03-28T19:00:00.907Z,26.70
2019-03-28T19:02:29.396Z,32.05
2019-03-28T19:04:57.938Z,32.48
2019-03-28T19:07:26.444Z,36.48
2019-03-28T19:09:54.941Z,31.25
2019-03-28T19:12:23.448Z,34.33
2019-03-28T19:14:51.946Z,32.50
2019-03-28T19:17:20.440Z,57.85
2019-03-28T19:19:48.933Z,48.95
2019-03-28T19:22:17.425Z,28.20
2019-03-28T19:24:45.948Z,33.85
2019-03-28T19:27:14.534Z,32.40
2019-03-28T19:29:43.035Z,27.58
2019-03-28T19:32:11.540Z,29.75
2019-03-28T19:34:40.003Z,23.40
2019-03-28T19:37:08.500Z,39.58
2019-03-28T19:39:37.006Z,30.77
2019-03-28T19:42:05.496Z,27.95
2019-03-28T19:44:34.000Z,33.63
2019-03-28T19:47:02.519Z,24.67
2019-03-28T19:49:31.080Z,33.78
2019-03-28T19:52:00.125Z,21.48
2019-03-28T19:54:28.858Z,39.05
2019-03-28T19:56:57.557Z,27.30
2019-03-28T19:59:26.213Z,21.40
2019-03-28T20:01:54.780Z,30.62
2019-03-28T20:04:23.283Z,28.92
2019-03-28T20:06:51.768Z,35.90
2019-03-28T20:09:20.264Z,49.93
2019-03-28T20:11:48.759Z,44.67
2019-03-28T20:14:17.265Z,35.30
2019-03-28T20:16:45.753Z,40.70
2019-03-28T20:19:17.654Z,40.05
2019-03-28T20:21:44.490Z,30.92
2019-03-28T20:24:13.011Z,32.90
2019-03-28T20:26:41.497Z,55.30
2019-03-28T20:29:10.001Z,30.85
2019-03-28T20:31:38.496Z,29.52
2019-03-28T20:34:07.038Z,23.22
2019-03-28T20:36:38.568Z,31.05
2019-03-28T20:39:07.251Z,28.10
2019-03-28T20:41:35.747Z,27.07
2019-03-28T20:44:04.273Z,25.02
2019-03-28T20:46:32.842Z,23.77
2019-03-28T20:49:01.331Z,24.15
2019-03-28T20:51:29.829Z,18.40
2019-03-28T20:53:58.315Z,21.45
2019-03-28T20:56:26.808Z,22.98
2019-03-28T20:58:55.414Z,24.27
2019-03-28T21:01:23.870Z,25.25
2019-03-28T21:03:52.369Z,27.58
2019-03-28T21:06:20.868Z,31.25
2019-03-28T21:08:49.351Z,38.85
2019-03-28T21:11:17.848Z,20.80
2019-03-28T21:13:49.049Z,17.65
2019-03-28T21:16:17.565Z,18.02
2019-03-28T21:18:46.050Z,15.88
2019-03-28T21:21:14.652Z,18.90
2019-03-28T21:23:43.144Z,18.15
2019-03-28T21:26:11.669Z,65.80
2019-03-28T21:28:47.164Z,54.25
2019-03-28T21:31:10.432Z,40.78
2019-03-28T21:33:38.920Z,40.52
2019-03-28T21:36:07.436Z,47.00
2019-03-28T21:38:35.927Z,48.42
2019-03-28T21:41:04.433Z,53.52
2019-03-28T21:43:32.922Z,34.98
2019-03-28T21:46:01.418Z,28.98
2019-03-28T21:48:29.914Z,36.48
2019-03-28T21:50:58.399Z,42.65
2019-03-28T21:53:26.895Z,37.65
2019-03-28T21:55:57.447Z,36.73
2019-03-28T21:58:25.623Z,29.60
2019-03-28T22:00:54.129Z,30.82
2019-03-28T22:03:22.603Z,38.78
2019-03-28T22:05:51.114Z,46.98
2019-03-28T22:08:19.670Z,45.98
2019-03-28T22:10:48.166Z,49.98
2019-03-28T22:13:16.663Z,47.27
2019-03-28T22:15:45.154Z,41.88
2019-03-28T22:18:13.659Z,33.67
2019-03-28T22:20:42.212Z,46.83
2019-03-28T22:23:13.430Z,45.85
2019-03-28T22:25:40.909Z,45.15
2019-03-28T22:28:09.395Z,28.77
2019-03-28T22:30:38.849Z,20.85
2019-03-28T22:33:07.471Z,17.32
2019-03-28T22:35:35.955Z,58.80
2019-03-28T22:38:04.465Z,23.18
2019-03-28T22:40:32.955Z,16.48
2019-03-28T22:43:01.489Z,13.20
2019-03-28T22:45:29.967Z,11.88
2019-03-28T22:48:10.067Z,12.13
2019-03-28T22:50:28.674Z,10.43
2019-03-28T22:52:57.162Z,13.10
2019-03-28T22:55:25.642Z,16.80
2019-03-28T22:57:54.278Z,22.85
2019-03-28T23:00:24.287Z,26.25
2019-03-28T23:02:52.769Z,25.00
2019-03-28T23:05:21.257Z,23.07
2019-03-28T23:07:49.738Z,21.25
2019-03-28T23:10:20.889Z,12.23
2019-03-28T23:12:48.447Z,11.80
2019-03-28T23:15:16.950Z,12.78
2019-03-28T23:17:45.434Z,15.48
2019-03-28T23:20:13.923Z,15.80
2019-03-28T23:22:42.405Z,13.32
2019-03-28T23:25:11.169Z,14.30
2019-03-28T23:27:39.768Z,12.35
2019-03-28T23:30:09.465Z,10.78
2019-03-28T23:32:38.176Z,12.00
2019-03-28T23:35:08.127Z,13.03
2019-03-28T23:37:36.613Z,12.58
2019-03-28T23:40:08.917Z,11.18
2019-03-28T23:42:37.398Z,11.55
2019-03-28T23:45:08.326Z,10.63
2019-03-28T23:47:36.808Z,11.55
2019-03-28T23:50:07.107Z,11.18
2019-03-28T23:52:35.796Z,13.53
2019-03-28T23:55:08.025Z,14.93
2019-03-28T23:57:36.519Z,18.35
